Station: ELLX - 21/02/2020 20:20Z (il y a 21 minutes)
ELLX 212020Z 21011KT CAVOK 04/01 Q1028 NOSIG
Vent du 210º - 11 kt
Visibilité > 10 km et plafond haut ou pas de nuages significatifs
Température: +04ºC - Point de rosée: +01ºC - QNH: 1028 hPa
Pas de changement significatif prévu dans les 2 heures qui suivent l'observation